sensor_id;sensor_type;location;lat;lon;timestamp;P1;durP1;ratioP1;P2;durP2;ratioP2
67378;SDS011;54262;44.642;-0.974;2023-12-20T00:01:35;1.65;;;1.55;;
67378;SDS011;54262;44.642;-0.974;2023-12-20T00:04:04;1.98;;;1.88;;
67378;SDS011;54262;44.642;-0.974;2023-12-20T00:06:30;1.63;;;1.52;;
67378;SDS011;54262;44.642;-0.974;2023-12-20T00:08:58;1.98;;;1.88;;
67378;SDS011;54262;44.642;-0.974;2023-12-20T00:11:24;1.85;;;1.75;;
67378;SDS011;54262;44.642;-0.974;2023-12-20T00:13:49;1.90;;;1.80;;
67378;SDS011;54262;44.642;-0.974;2023-12-20T00:16:16;1.60;;;1.50;;
67378;SDS011;54262;44.642;-0.974;2023-12-20T00:18:43;1.40;;;1.30;;
67378;SDS011;54262;44.642;-0.974;2023-12-20T00:21:09;1.48;;;1.38;;
67378;SDS011;54262;44.642;-0.974;2023-12-20T00:23:35;1.20;;;1.20;;
67378;SDS011;54262;44.642;-0.974;2023-12-20T00:26:00;1.50;;;1.40;;
67378;SDS011;54262;44.642;-0.974;2023-12-20T00:28:26;1.40;;;1.30;;
67378;SDS011;54262;44.642;-0.974;2023-12-20T00:30:52;1.30;;;1.30;;
67378;SDS011;54262;44.642;-0.974;2023-12-20T00:33:18;1.35;;;1.23;;
67378;SDS011;54262;44.642;-0.974;2023-12-20T00:35:44;1.17;;;1.10;;
67378;SDS011;54262;44.642;-0.974;2023-12-20T00:38:09;1.23;;;1.23;;
67378;SDS011;54262;44.642;-0.974;2023-12-20T00:40:36;1.05;;;1.05;;
67378;SDS011;54262;44.642;-0.974;2023-12-20T00:43:02;2.50;;;1.40;;
67378;SDS011;54262;44.642;-0.974;2023-12-20T00:45:28;1.13;;;1.13;;
67378;SDS011;54262;44.642;-0.974;2023-12-20T00:47:53;1.42;;;1.33;;
67378;SDS011;54262;44.642;-0.974;2023-12-20T00:50:19;1.42;;;1.33;;
67378;SDS011;54262;44.642;-0.974;2023-12-20T00:52:46;2.47;;;1.73;;
67378;SDS011;54262;44.642;-0.974;2023-12-20T00:55:12;1.73;;;1.38;;
67378;SDS011;54262;44.642;-0.974;2023-12-20T00:57:38;1.02;;;1.00;;
67378;SDS011;54262;44.642;-0.974;2023-12-20T01:00:04;0.88;;;0.88;;
67378;SDS011;54262;44.642;-0.974;2023-12-20T01:02:31;1.33;;;1.15;;
67378;SDS011;54262;44.642;-0.974;2023-12-20T01:04:56;1.73;;;1.27;;
67378;SDS011;54262;44.642;-0.974;2023-12-20T01:07:22;1.20;;;1.10;;
67378;SDS011;54262;44.642;-0.974;2023-12-20T01:09:50;1.35;;;1.15;;
67378;SDS011;54262;44.642;-0.974;2023-12-20T01:12:15;1.30;;;1.20;;
67378;SDS011;54262;44.642;-0.974;2023-12-20T01:14:41;1.48;;;1.35;;
67378;SDS011;54262;44.642;-0.974;2023-12-20T01:17:07;1.63;;;1.52;;
67378;SDS011;54262;44.642;-0.974;2023-12-20T01:19:35;2.47;;;1.70;;
67378;SDS011;54262;44.642;-0.974;2023-12-20T01:22:00;1.77;;;1.10;;
67378;SDS011;54262;44.642;-0.974;2023-12-20T01:24:26;2.53;;;1.63;;
67378;SDS011;54262;44.642;-0.974;2023-12-20T01:26:52;1.40;;;1.30;;
67378;SDS011;54262;44.642;-0.974;2023-12-20T01:29:17;1.02;;;0.85;;
67378;SDS011;54262;44.642;-0.974;2023-12-20T01:31:43;2.13;;;1.38;;
67378;SDS011;54262;44.642;-0.974;2023-12-20T01:34:09;1.77;;;1.23;;
67378;SDS011;54262;44.642;-0.974;2023-12-20T01:36:34;2.20;;;1.77;;
67378;SDS011;54262;44.642;-0.974;2023-12-20T01:39:00;1.15;;;1.02;;
67378;SDS011;54262;44.642;-0.974;2023-12-20T01:41:26;1.85;;;1.38;;
67378;SDS011;54262;44.642;-0.974;2023-12-20T01:43:51;2.15;;;1.17;;
67378;SDS011;54262;44.642;-0.974;2023-12-20T01:46:18;2.20;;;1.15;;
67378;SDS011;54262;44.642;-0.974;2023-12-20T01:48:46;2.40;;;1.20;;
67378;SDS011;54262;44.642;-0.974;2023-12-20T01:51:13;3.35;;;1.38;;
67378;SDS011;54262;44.642;-0.974;2023-12-20T01:53:39;4.15;;;1.27;;
67378;SDS011;54262;44.642;-0.974;2023-12-20T01:56:06;2.33;;;1.20;;
67378;SDS011;54262;44.642;-0.974;2023-12-20T01:58:32;2.22;;;1.10;;
67378;SDS011;54262;44.642;-0.974;2023-12-20T02:00:58;3.22;;;1.02;;
67378;SDS011;54262;44.642;-0.974;2023-12-20T02:03:23;2.47;;;1.40;;
67378;SDS011;54262;44.642;-0.974;2023-12-20T02:05:49;1.77;;;0.90;;
67378;SDS011;54262;44.642;-0.974;2023-12-20T02:08:16;1.83;;;1.10;;
67378;SDS011;54262;44.642;-0.974;2023-12-20T02:10:44;1.58;;;1.20;;
67378;SDS011;54262;44.642;-0.974;2023-12-20T02:13:10;3.55;;;0.90;;
67378;SDS011;54262;44.642;-0.974;2023-12-20T02:15:35;2.80;;;1.10;;
67378;SDS011;54262;44.642;-0.974;2023-12-20T02:18:02;1.27;;;0.80;;
67378;SDS011;54262;44.642;-0.974;2023-12-20T02:20:30;2.22;;;0.80;;
67378;SDS011;54262;44.642;-0.974;2023-12-20T02:22:56;2.70;;;0.90;;
67378;SDS011;54262;44.642;-0.974;2023-12-20T02:25:22;1.73;;;0.90;;
67378;SDS011;54262;44.642;-0.974;2023-12-20T02:27:48;4.47;;;0.80;;
67378;SDS011;54262;44.642;-0.974;2023-12-20T02:30:14;1.48;;;1.10;;
67378;SDS011;54262;44.642;-0.974;2023-12-20T02:32:40;1.02;;;0.63;;
67378;SDS011;54262;44.642;-0.974;2023-12-20T02:35:06;1.52;;;0.40;;
67378;SDS011;54262;44.642;-0.974;2023-12-20T02:37:32;1.17;;;0.50;;
67378;SDS011;54262;44.642;-0.974;2023-12-20T02:39:58;1.27;;;0.57;;
67378;SDS011;54262;44.642;-0.974;2023-12-20T02:42:23;1.05;;;0.93;;
67378;SDS011;54262;44.642;-0.974;2023-12-20T02:44:49;0.93;;;0.43;;
67378;SDS011;54262;44.642;-0.974;2023-12-20T02:47:15;2.03;;;0.60;;
67378;SDS011;54262;44.642;-0.974;2023-12-20T02:49:40;0.82;;;0.60;;
67378;SDS011;54262;44.642;-0.974;2023-12-20T02:52:06;1.85;;;1.10;;
67378;SDS011;54262;44.642;-0.974;2023-12-20T02:54:32;0.60;;;0.52;;
67378;SDS011;54262;44.642;-0.974;2023-12-20T02:56:57;1.63;;;0.65;;
67378;SDS011;54262;44.642;-0.974;2023-12-20T02:59:23;1.60;;;0.80;;
67378;SDS011;54262;44.642;-0.974;2023-12-20T03:01:48;1.23;;;0.70;;
67378;SDS011;54262;44.642;-0.974;2023-12-20T03:04:14;1.42;;;0.80;;
67378;SDS011;54262;44.642;-0.974;2023-12-20T03:06:40;3.00;;;0.52;;
67378;SDS011;54262;44.642;-0.974;2023-12-20T03:09:05;1.10;;;0.50;;
67378;SDS011;54262;44.642;-0.974;2023-12-20T03:11:33;0.85;;;0.43;;
67378;SDS011;54262;44.642;-0.974;2023-12-20T03:13:59;0.75;;;0.50;;
67378;SDS011;54262;44.642;-0.974;2023-12-20T03:16:25;1.30;;;0.80;;
67378;SDS011;54262;44.642;-0.974;2023-12-20T03:18:50;1.30;;;0.95;;
67378;SDS011;54262;44.642;-0.974;2023-12-20T03:21:19;1.25;;;0.80;;
67378;SDS011;54262;44.642;-0.974;2023-12-20T03:23:45;1.80;;;0.82;;
67378;SDS011;54262;44.642;-0.974;2023-12-20T03:26:10;2.35;;;1.13;;
67378;SDS011;54262;44.642;-0.974;2023-12-20T03:28:36;2.70;;;1.58;;
67378;SDS011;54262;44.642;-0.974;2023-12-20T03:31:02;3.08;;;0.70;;
67378;SDS011;54262;44.642;-0.974;2023-12-20T03:33:28;1.63;;;0.88;;
67378;SDS011;54262;44.642;-0.974;2023-12-20T03:35:54;2.08;;;1.00;;
67378;SDS011;54262;44.642;-0.974;2023-12-20T03:38:20;1.92;;;0.88;;
67378;SDS011;54262;44.642;-0.974;2023-12-20T03:40:46;3.95;;;1.05;;
67378;SDS011;54262;44.642;-0.974;2023-12-20T03:43:12;2.80;;;0.82;;
67378;SDS011;54262;44.642;-0.974;2023-12-20T03:45:37;2.83;;;0.80;;
67378;SDS011;54262;44.642;-0.974;2023-12-20T03:48:03;3.08;;;0.93;;
67378;SDS011;54262;44.642;-0.974;2023-12-20T03:50:32;1.25;;;0.85;;
67378;SDS011;54262;44.642;-0.974;2023-12-20T03:52:58;1.25;;;0.80;;
67378;SDS011;54262;44.642;-0.974;2023-12-20T03:55:23;4.32;;;0.90;;
67378;SDS011;54262;44.642;-0.974;2023-12-20T03:57:49;3.28;;;1.00;;
67378;SDS011;54262;44.642;-0.974;2023-12-20T04:00:15;2.47;;;1.17;;
67378;SDS011;54262;44.642;-0.974;2023-12-20T04:02:41;2.95;;;1.10;;
67378;SDS011;54262;44.642;-0.974;2023-12-20T04:05:07;2.25;;;1.10;;
67378;SDS011;54262;44.642;-0.974;2023-12-20T04:07:35;4.07;;;1.10;;
67378;SDS011;54262;44.642;-0.974;2023-12-20T04:10:01;2.95;;;0.90;;
67378;SDS011;54262;44.642;-0.974;2023-12-20T04:12:31;1.27;;;0.70;;
67378;SDS011;54262;44.642;-0.974;2023-12-20T04:14:57;2.45;;;1.42;;
67378;SDS011;54262;44.642;-0.974;2023-12-20T04:17:23;2.53;;;1.13;;
67378;SDS011;54262;44.642;-0.974;2023-12-20T04:19:49;1.70;;;0.95;;
67378;SDS011;54262;44.642;-0.974;2023-12-20T04:22:18;3.10;;;1.63;;
67378;SDS011;54262;44.642;-0.974;2023-12-20T04:24:44;2.75;;;1.13;;
67378;SDS011;54262;44.642;-0.974;2023-12-20T04:27:10;6.47;;;1.05;;
67378;SDS011;54262;44.642;-0.974;2023-12-20T04:29:35;3.15;;;1.33;;
67378;SDS011;54262;44.642;-0.974;2023-12-20T04:32:01;5.20;;;1.30;;
67378;SDS011;54262;44.642;-0.974;2023-12-20T04:34:27;6.90;;;1.10;;
67378;SDS011;54262;44.642;-0.974;2023-12-20T04:36:54;5.28;;;2.08;;
67378;SDS011;54262;44.642;-0.974;2023-12-20T04:39:19;7.28;;;1.70;;
67378;SDS011;54262;44.642;-0.974;2023-12-20T04:41:45;6.07;;;1.95;;
67378;SDS011;54262;44.642;-0.974;2023-12-20T04:44:12;6.10;;;2.38;;
67378;SDS011;54262;44.642;-0.974;2023-12-20T04:46:39;3.15;;;1.45;;
67378;SDS011;54262;44.642;-0.974;2023-12-20T04:49:04;6.95;;;2.08;;
67378;SDS011;54262;44.642;-0.974;2023-12-20T04:51:32;4.18;;;1.40;;
67378;SDS011;54262;44.642;-0.974;2023-12-20T04:53:58;5.00;;;1.83;;
67378;SDS011;54262;44.642;-0.974;2023-12-20T04:56:24;7.22;;;1.73;;
67378;SDS011;54262;44.642;-0.974;2023-12-20T04:58:50;4.53;;;1.23;;
67378;SDS011;54262;44.642;-0.974;2023-12-20T05:01:16;6.05;;;1.98;;
67378;SDS011;54262;44.642;-0.974;2023-12-20T05:03:42;3.17;;;1.40;;
67378;SDS011;54262;44.642;-0.974;2023-12-20T05:06:09;4.38;;;1.00;;
67378;SDS011;54262;44.642;-0.974;2023-12-20T05:08:34;5.15;;;1.40;;
67378;SDS011;54262;44.642;-0.974;2023-12-20T05:11:00;6.63;;;1.52;;
67378;SDS011;54262;44.642;-0.974;2023-12-20T05:13:28;6.93;;;2.08;;
67378;SDS011;54262;44.642;-0.974;2023-12-20T05:15:54;5.68;;;1.90;;
67378;SDS011;54262;44.642;-0.974;2023-12-20T05:18:22;6.05;;;1.77;;
67378;SDS011;54262;44.642;-0.974;2023-12-20T05:20:49;6.22;;;1.60;;
67378;SDS011;54262;44.642;-0.974;2023-12-20T05:23:17;3.95;;;1.50;;
67378;SDS011;54262;44.642;-0.974;2023-12-20T05:25:43;2.92;;;1.33;;
67378;SDS011;54262;44.642;-0.974;2023-12-20T05:28:09;3.40;;;1.33;;
67378;SDS011;54262;44.642;-0.974;2023-12-20T05:30:34;5.30;;;1.77;;
67378;SDS011;54262;44.642;-0.974;2023-12-20T05:33:00;7.38;;;1.58;;
67378;SDS011;54262;44.642;-0.974;2023-12-20T05:35:26;7.70;;;1.83;;
67378;SDS011;54262;44.642;-0.974;2023-12-20T05:37:51;7.75;;;1.83;;
67378;SDS011;54262;44.642;-0.974;2023-12-20T05:40:17;6.70;;;1.65;;
67378;SDS011;54262;44.642;-0.974;2023-12-20T05:42:42;9.73;;;1.63;;
67378;SDS011;54262;44.642;-0.974;2023-12-20T05:45:09;6.65;;;1.67;;
67378;SDS011;54262;44.642;-0.974;2023-12-20T05:47:34;3.85;;;1.42;;
67378;SDS011;54262;44.642;-0.974;2023-12-20T05:50:00;2.78;;;1.52;;
67378;SDS011;54262;44.642;-0.974;2023-12-20T05:52:26;5.57;;;1.38;;
67378;SDS011;54262;44.642;-0.974;2023-12-20T05:54:51;6.32;;;2.95;;
67378;SDS011;54262;44.642;-0.974;2023-12-20T05:57:17;8.43;;;2.03;;
67378;SDS011;54262;44.642;-0.974;2023-12-20T05:59:43;3.88;;;2.38;;
67378;SDS011;54262;44.642;-0.974;2023-12-20T06:02:08;10.98;;;3.10;;
67378;SDS011;54262;44.642;-0.974;2023-12-20T06:04:34;7.05;;;2.65;;
67378;SDS011;54262;44.642;-0.974;2023-12-20T06:06:59;15.90;;;2.42;;
67378;SDS011;54262;44.642;-0.974;2023-12-20T06:09:28;8.45;;;1.98;;
67378;SDS011;54262;44.642;-0.974;2023-12-20T06:11:54;3.05;;;1.75;;
67378;SDS011;54262;44.642;-0.974;2023-12-20T06:14:23;4.35;;;1.60;;
67378;SDS011;54262;44.642;-0.974;2023-12-20T06:16:48;6.90;;;1.88;;
67378;SDS011;54262;44.642;-0.974;2023-12-20T06:19:14;9.95;;;2.97;;
67378;SDS011;54262;44.642;-0.974;2023-12-20T06:21:40;8.32;;;1.88;;
67378;SDS011;54262;44.642;-0.974;2023-12-20T06:24:08;12.50;;;2.20;;
67378;SDS011;54262;44.642;-0.974;2023-12-20T06:26:34;6.95;;;2.20;;
67378;SDS011;54262;44.642;-0.974;2023-12-20T06:29:00;8.63;;;2.60;;
67378;SDS011;54262;44.642;-0.974;2023-12-20T06:31:26;16.77;;;2.75;;
67378;SDS011;54262;44.642;-0.974;2023-12-20T06:33:51;5.63;;;2.65;;
67378;SDS011;54262;44.642;-0.974;2023-12-20T06:36:22;8.77;;;1.73;;
67378;SDS011;54262;44.642;-0.974;2023-12-20T06:38:48;11.40;;;2.97;;
67378;SDS011;54262;44.642;-0.974;2023-12-20T06:41:14;6.32;;;3.17;;
67378;SDS011;54262;44.642;-0.974;2023-12-20T06:43:41;12.85;;;4.00;;
67378;SDS011;54262;44.642;-0.974;2023-12-20T06:46:07;8.75;;;2.28;;
67378;SDS011;54262;44.642;-0.974;2023-12-20T06:48:33;4.55;;;1.95;;
67378;SDS011;54262;44.642;-0.974;2023-12-20T06:51:00;11.68;;;3.17;;
67378;SDS011;54262;44.642;-0.974;2023-12-20T06:53:29;6.80;;;2.17;;
67378;SDS011;54262;44.642;-0.974;2023-12-20T06:55:55;4.63;;;2.28;;
67378;SDS011;54262;44.642;-0.974;2023-12-20T06:58:22;4.95;;;1.90;;
67378;SDS011;54262;44.642;-0.974;2023-12-20T07:00:50;9.00;;;1.63;;
67378;SDS011;54262;44.642;-0.974;2023-12-20T07:03:19;6.43;;;2.55;;
67378;SDS011;54262;44.642;-0.974;2023-12-20T07:05:44;14.93;;;2.47;;
67378;SDS011;54262;44.642;-0.974;2023-12-20T07:08:11;5.75;;;2.20;;
67378;SDS011;54262;44.642;-0.974;2023-12-20T07:10:39;11.98;;;3.08;;
67378;SDS011;54262;44.642;-0.974;2023-12-20T07:13:05;9.48;;;1.95;;
67378;SDS011;54262;44.642;-0.974;2023-12-20T07:15:34;9.80;;;2.28;;
67378;SDS011;54262;44.642;-0.974;2023-12-20T07:18:00;17.08;;;2.55;;
67378;SDS011;54262;44.642;-0.974;2023-12-20T07:20:26;4.25;;;2.03;;
67378;SDS011;54262;44.642;-0.974;2023-12-20T07:22:52;9.45;;;2.40;;
67378;SDS011;54262;44.642;-0.974;2023-12-20T07:25:20;4.85;;;1.70;;
67378;SDS011;54262;44.642;-0.974;2023-12-20T07:27:45;2.63;;;1.77;;
67378;SDS011;54262;44.642;-0.974;2023-12-20T07:30:11;7.80;;;2.35;;
67378;SDS011;54262;44.642;-0.974;2023-12-20T07:32:37;9.50;;;2.40;;
67378;SDS011;54262;44.642;-0.974;2023-12-20T07:35:03;7.28;;;2.40;;
67378;SDS011;54262;44.642;-0.974;2023-12-20T07:37:28;4.25;;;1.90;;
67378;SDS011;54262;44.642;-0.974;2023-12-20T07:39:54;7.97;;;2.05;;
67378;SDS011;54262;44.642;-0.974;2023-12-20T07:42:20;10.90;;;2.63;;
67378;SDS011;54262;44.642;-0.974;2023-12-20T07:44:47;18.17;;;2.58;;
67378;SDS011;54262;44.642;-0.974;2023-12-20T07:47:12;21.05;;;2.97;;
67378;SDS011;54262;44.642;-0.974;2023-12-20T07:49:41;3.15;;;1.85;;
67378;SDS011;54262;44.642;-0.974;2023-12-20T07:52:07;8.02;;;2.45;;
67378;SDS011;54262;44.642;-0.974;2023-12-20T07:54:36;15.00;;;3.10;;
67378;SDS011;54262;44.642;-0.974;2023-12-20T07:57:02;10.48;;;2.90;;
67378;SDS011;54262;44.642;-0.974;2023-12-20T07:59:27;8.25;;;2.50;;
67378;SDS011;54262;44.642;-0.974;2023-12-20T08:01:53;11.13;;;2.97;;
67378;SDS011;54262;44.642;-0.974;2023-12-20T08:04:19;7.45;;;2.88;;
67378;SDS011;54262;44.642;-0.974;2023-12-20T08:06:44;10.75;;;2.50;;
67378;SDS011;54262;44.642;-0.974;2023-12-20T08:09:10;11.60;;;2.72;;
67378;SDS011;54262;44.642;-0.974;2023-12-20T08:11:36;10.25;;;2.15;;
67378;SDS011;54262;44.642;-0.974;2023-12-20T08:14:01;9.05;;;2.53;;
67378;SDS011;54262;44.642;-0.974;2023-12-20T08:16:29;8.43;;;4.70;;
67378;SDS011;54262;44.642;-0.974;2023-12-20T08:18:55;17.23;;;4.07;;
67378;SDS011;54262;44.642;-0.974;2023-12-20T08:21:21;3.22;;;1.83;;
67378;SDS011;54262;44.642;-0.974;2023-12-20T08:23:47;11.80;;;2.85;;
67378;SDS011;54262;44.642;-0.974;2023-12-20T08:26:18;6.20;;;2.10;;
67378;SDS011;54262;44.642;-0.974;2023-12-20T08:28:46;9.25;;;2.20;;
67378;SDS011;54262;44.642;-0.974;2023-12-20T08:31:15;5.75;;;2.20;;
67378;SDS011;54262;44.642;-0.974;2023-12-20T08:33:43;8.50;;;2.20;;
67378;SDS011;54262;44.642;-0.974;2023-12-20T08:36:12;7.88;;;2.20;;
67378;SDS011;54262;44.642;-0.974;2023-12-20T08:38:38;5.07;;;1.80;;
67378;SDS011;54262;44.642;-0.974;2023-12-20T08:41:04;8.20;;;2.30;;
67378;SDS011;54262;44.642;-0.974;2023-12-20T08:43:31;7.50;;;2.25;;
67378;SDS011;54262;44.642;-0.974;2023-12-20T08:46:00;8.90;;;2.22;;
67378;SDS011;54262;44.642;-0.974;2023-12-20T08:48:25;6.68;;;2.42;;
67378;SDS011;54262;44.642;-0.974;2023-12-20T08:50:51;9.07;;;2.33;;
67378;SDS011;54262;44.642;-0.974;2023-12-20T08:53:17;5.55;;;2.08;;
67378;SDS011;54262;44.642;-0.974;2023-12-20T08:55:44;20.02;;;3.13;;
67378;SDS011;54262;44.642;-0.974;2023-12-20T08:58:10;11.45;;;2.35;;
67378;SDS011;54262;44.642;-0.974;2023-12-20T09:00:35;8.73;;;2.35;;
67378;SDS011;54262;44.642;-0.974;2023-12-20T09:03:01;11.20;;;2.90;;
67378;SDS011;54262;44.642;-0.974;2023-12-20T09:05:27;8.82;;;1.98;;
67378;SDS011;54262;44.642;-0.974;2023-12-20T09:07:53;8.82;;;2.63;;
67378;SDS011;54262;44.642;-0.974;2023-12-20T09:10:19;9.65;;;2.70;;
67378;SDS011;54262;44.642;-0.974;2023-12-20T09:12:53;11.90;;;1.67;;
67378;SDS011;54262;44.642;-0.974;2023-12-20T09:15:21;9.60;;;2.25;;
67378;SDS011;54262;44.642;-0.974;2023-12-20T09:17:50;15.65;;;3.47;;
67378;SDS011;54262;44.642;-0.974;2023-12-20T09:20:16;13.95;;;2.92;;
67378;SDS011;54262;44.642;-0.974;2023-12-20T09:22:42;10.02;;;4.47;;
67378;SDS011;54262;44.642;-0.974;2023-12-20T09:25:09;12.75;;;3.15;;
67378;SDS011;54262;44.642;-0.974;2023-12-20T09:27:37;13.15;;;2.75;;
67378;SDS011;54262;44.642;-0.974;2023-12-20T09:30:03;19.35;;;2.90;;
67378;SDS011;54262;44.642;-0.974;2023-12-20T09:32:30;12.68;;;3.35;;
67378;SDS011;54262;44.642;-0.974;2023-12-20T09:34:56;11.20;;;2.58;;
67378;SDS011;54262;44.642;-0.974;2023-12-20T09:37:28;14.70;;;2.20;;
67378;SDS011;54262;44.642;-0.974;2023-12-20T09:39:54;9.30;;;2.20;;
67378;SDS011;54262;44.642;-0.974;2023-12-20T09:42:23;8.88;;;2.13;;
67378;SDS011;54262;44.642;-0.974;2023-12-20T09:44:57;7.00;;;2.88;;
67378;SDS011;54262;44.642;-0.974;2023-12-20T09:47:26;8.82;;;2.42;;
67378;SDS011;54262;44.642;-0.974;2023-12-20T09:49:52;14.02;;;3.63;;
67378;SDS011;54262;44.642;-0.974;2023-12-20T09:52:19;11.02;;;3.30;;
67378;SDS011;54262;44.642;-0.974;2023-12-20T09:54:47;11.45;;;5.40;;
67378;SDS011;54262;44.642;-0.974;2023-12-20T09:57:17;10.18;;;2.95;;
67378;SDS011;54262;44.642;-0.974;2023-12-20T09:59:43;9.77;;;1.88;;
67378;SDS011;54262;44.642;-0.974;2023-12-20T10:02:10;16.70;;;3.13;;
67378;SDS011;54262;44.642;-0.974;2023-12-20T10:04:40;6.65;;;2.20;;
67378;SDS011;54262;44.642;-0.974;2023-12-20T10:07:11;7.53;;;2.08;;
67378;SDS011;54262;44.642;-0.974;2023-12-20T10:09:43;6.40;;;2.08;;
67378;SDS011;54262;44.642;-0.974;2023-12-20T10:12:09;10.27;;;2.42;;
67378;SDS011;54262;44.642;-0.974;2023-12-20T10:14:35;7.47;;;2.70;;
67378;SDS011;54262;44.642;-0.974;2023-12-20T10:17:04;7.55;;;2.60;;
67378;SDS011;54262;44.642;-0.974;2023-12-20T10:19:32;11.23;;;2.88;;
67378;SDS011;54262;44.642;-0.974;2023-12-20T10:22:03;6.22;;;2.25;;
67378;SDS011;54262;44.642;-0.974;2023-12-20T10:24:30;6.45;;;2.28;;
67378;SDS011;54262;44.642;-0.974;2023-12-20T10:27:02;16.40;;;6.80;;
67378;SDS011;54262;44.642;-0.974;2023-12-20T10:29:35;14.30;;;3.60;;
67378;SDS011;54262;44.642;-0.974;2023-12-20T10:35:02;8.35;;;2.55;;
67378;SDS011;54262;44.642;-0.974;2023-12-20T10:37:28;11.98;;;2.33;;
67378;SDS011;54262;44.642;-0.974;2023-12-20T10:39:54;10.65;;;2.38;;
67378;SDS011;54262;44.642;-0.974;2023-12-20T10:42:23;23.95;;;3.25;;
67378;SDS011;54262;44.642;-0.974;2023-12-20T10:44:51;9.60;;;2.15;;
67378;SDS011;54262;44.642;-0.974;2023-12-20T10:47:18;7.10;;;2.08;;
67378;SDS011;54262;44.642;-0.974;2023-12-20T10:49:45;9.75;;;2.63;;
67378;SDS011;54262;44.642;-0.974;2023-12-20T10:52:11;11.02;;;2.55;;
67378;SDS011;54262;44.642;-0.974;2023-12-20T10:54:40;5.45;;;2.70;;
67378;SDS011;54262;44.642;-0.974;2023-12-20T10:57:06;9.50;;;2.80;;
67378;SDS011;54262;44.642;-0.974;2023-12-20T10:59:33;5.13;;;2.35;;
67378;SDS011;54262;44.642;-0.974;2023-12-20T11:02:02;5.55;;;2.05;;
67378;SDS011;54262;44.642;-0.974;2023-12-20T11:04:54;6.45;;;2.05;;
67378;SDS011;54262;44.642;-0.974;2023-12-20T11:07:23;6.72;;;2.10;;
67378;SDS011;54262;44.642;-0.974;2023-12-20T11:10:00;9.07;;;2.50;;
67378;SDS011;54262;44.642;-0.974;2023-12-20T11:15:29;8.88;;;2.22;;
67378;SDS011;54262;44.642;-0.974;2023-12-20T11:17:55;7.63;;;2.25;;
67378;SDS011;54262;44.642;-0.974;2023-12-20T11:20:39;11.55;;;2.75;;
67378;SDS011;54262;44.642;-0.974;2023-12-20T11:23:06;10.48;;;1.50;;
67378;SDS011;54262;44.642;-0.974;2023-12-20T11:25:51;5.47;;;1.92;;
67378;SDS011;54262;44.642;-0.974;2023-12-20T11:28:22;9.88;;;2.60;;
67378;SDS011;54262;44.642;-0.974;2023-12-20T11:30:52;9.73;;;2.47;;
67378;SDS011;54262;44.642;-0.974;2023-12-20T11:33:30;6.28;;;2.20;;
67378;SDS011;54262;44.642;-0.974;2023-12-20T11:35:56;5.05;;;1.70;;
67378;SDS011;54262;44.642;-0.974;2023-12-20T11:38:24;3.97;;;1.60;;
67378;SDS011;54262;44.642;-0.974;2023-12-20T11:40:50;8.52;;;2.40;;
67378;SDS011;54262;44.642;-0.974;2023-12-20T11:46:02;6.97;;;2.80;;
67378;SDS011;54262;44.642;-0.974;2023-12-20T11:48:32;3.33;;;2.08;;
67378;SDS011;54262;44.642;-0.974;2023-12-20T11:51:00;11.05;;;2.80;;
67378;SDS011;54262;44.642;-0.974;2023-12-20T11:53:25;5.35;;;2.17;;
67378;SDS011;54262;44.642;-0.974;2023-12-20T11:55:54;5.72;;;1.73;;
67378;SDS011;54262;44.642;-0.974;2023-12-20T11:58:19;6.63;;;1.67;;
67378;SDS011;54262;44.642;-0.974;2023-12-20T12:00:45;7.88;;;1.63;;
67378;SDS011;54262;44.642;-0.974;2023-12-20T12:03:14;6.07;;;2.53;;
67378;SDS011;54262;44.642;-0.974;2023-12-20T12:05:40;4.28;;;1.80;;
67378;SDS011;54262;44.642;-0.974;2023-12-20T12:08:06;6.47;;;1.73;;
67378;SDS011;54262;44.642;-0.974;2023-12-20T12:10:32;14.25;;;1.85;;
67378;SDS011;54262;44.642;-0.974;2023-12-20T12:12:58;6.95;;;2.60;;
67378;SDS011;54262;44.642;-0.974;2023-12-20T12:15:25;4.30;;;2.00;;
67378;SDS011;54262;44.642;-0.974;2023-12-20T12:17:55;6.03;;;1.75;;
67378;SDS011;54262;44.642;-0.974;2023-12-20T12:20:21;3.90;;;1.67;;
67378;SDS011;54262;44.642;-0.974;2023-12-20T12:22:59;3.17;;;2.20;;
67378;SDS011;54262;44.642;-0.974;2023-12-20T12:25:26;6.68;;;2.00;;
67378;SDS011;54262;44.642;-0.974;2023-12-20T12:27:52;7.57;;;1.98;;
67378;SDS011;54262;44.642;-0.974;2023-12-20T12:30:18;17.33;;;2.35;;
67378;SDS011;54262;44.642;-0.974;2023-12-20T12:32:46;8.10;;;3.05;;
67378;SDS011;54262;44.642;-0.974;2023-12-20T12:35:13;4.07;;;2.65;;
67378;SDS011;54262;44.642;-0.974;2023-12-20T12:37:42;11.65;;;2.75;;
67378;SDS011;54262;44.642;-0.974;2023-12-20T12:40:12;32.08;;;4.20;;
67378;SDS011;54262;44.642;-0.974;2023-12-20T12:42:39;37.30;;;2.60;;
67378;SDS011;54262;44.642;-0.974;2023-12-20T12:45:06;13.95;;;2.80;;
67378;SDS011;54262;44.642;-0.974;2023-12-20T12:47:32;23.98;;;3.53;;
67378;SDS011;54262;44.642;-0.974;2023-12-20T12:49:59;16.55;;;3.85;;
67378;SDS011;54262;44.642;-0.974;2023-12-20T12:52:25;20.27;;;2.42;;
67378;SDS011;54262;44.642;-0.974;2023-12-20T12:54:51;14.50;;;3.15;;
67378;SDS011;54262;44.642;-0.974;2023-12-20T12:57:17;24.58;;;3.35;;
67378;SDS011;54262;44.642;-0.974;2023-12-20T12:59:44;13.40;;;3.95;;
67378;SDS011;54262;44.642;-0.974;2023-12-20T13:02:13;32.08;;;3.67;;
67378;SDS011;54262;44.642;-0.974;2023-12-20T13:04:40;17.88;;;3.42;;
67378;SDS011;54262;44.642;-0.974;2023-12-20T13:07:06;15.23;;;2.92;;
67378;SDS011;54262;44.642;-0.974;2023-12-20T13:09:32;26.42;;;2.95;;
67378;SDS011;54262;44.642;-0.974;2023-12-20T13:11:58;6.90;;;2.92;;
67378;SDS011;54262;44.642;-0.974;2023-12-20T13:14:24;14.60;;;2.65;;
67378;SDS011;54262;44.642;-0.974;2023-12-20T13:16:50;14.88;;;2.65;;
67378;SDS011;54262;44.642;-0.974;2023-12-20T13:19:16;10.57;;;2.60;;
67378;SDS011;54262;44.642;-0.974;2023-12-20T13:21:41;20.50;;;2.60;;
67378;SDS011;54262;44.642;-0.974;2023-12-20T13:24:09;8.60;;;2.22;;
67378;SDS011;54262;44.642;-0.974;2023-12-20T13:26:35;10.27;;;2.53;;
67378;SDS011;54262;44.642;-0.974;2023-12-20T13:29:01;9.88;;;2.33;;
67378;SDS011;54262;44.642;-0.974;2023-12-20T13:31:27;20.23;;;2.92;;
67378;SDS011;54262;44.642;-0.974;2023-12-20T13:33:54;10.02;;;2.70;;
67378;SDS011;54262;44.642;-0.974;2023-12-20T13:36:20;4.55;;;1.55;;
67378;SDS011;54262;44.642;-0.974;2023-12-20T13:38:46;18.08;;;3.05;;
67378;SDS011;54262;44.642;-0.974;2023-12-20T13:41:11;5.82;;;2.05;;
67378;SDS011;54262;44.642;-0.974;2023-12-20T13:43:37;11.88;;;2.10;;
67378;SDS011;54262;44.642;-0.974;2023-12-20T13:46:03;11.90;;;1.95;;
67378;SDS011;54262;44.642;-0.974;2023-12-20T13:48:29;9.55;;;2.25;;
67378;SDS011;54262;44.642;-0.974;2023-12-20T13:50:54;5.78;;;2.10;;
67378;SDS011;54262;44.642;-0.974;2023-12-20T13:53:20;6.68;;;1.85;;
67378;SDS011;54262;44.642;-0.974;2023-12-20T13:55:45;6.82;;;1.67;;
67378;SDS011;54262;44.642;-0.974;2023-12-20T13:58:11;4.60;;;1.45;;
67378;SDS011;54262;44.642;-0.974;2023-12-20T14:00:37;5.05;;;1.45;;
67378;SDS011;54262;44.642;-0.974;2023-12-20T14:03:05;7.32;;;1.63;;
67378;SDS011;54262;44.642;-0.974;2023-12-20T14:05:32;3.67;;;1.63;;
67378;SDS011;54262;44.642;-0.974;2023-12-20T14:07:58;3.78;;;1.40;;
67378;SDS011;54262;44.642;-0.974;2023-12-20T14:10:24;8.75;;;1.70;;
67378;SDS011;54262;44.642;-0.974;2023-12-20T14:12:55;7.45;;;1.73;;
67378;SDS011;54262;44.642;-0.974;2023-12-20T14:15:21;7.53;;;2.45;;
67378;SDS011;54262;44.642;-0.974;2023-12-20T14:17:50;2.80;;;1.08;;
67378;SDS011;54262;44.642;-0.974;2023-12-20T14:20:16;2.33;;;1.10;;
67378;SDS011;54262;44.642;-0.974;2023-12-20T14:22:43;5.97;;;1.98;;
67378;SDS011;54262;44.642;-0.974;2023-12-20T14:25:11;2.65;;;1.63;;
67378;SDS011;54262;44.642;-0.974;2023-12-20T14:27:38;4.43;;;2.03;;
67378;SDS011;54262;44.642;-0.974;2023-12-20T14:30:05;6.32;;;1.75;;
67378;SDS011;54262;44.642;-0.974;2023-12-20T14:32:31;6.90;;;1.73;;
67378;SDS011;54262;44.642;-0.974;2023-12-20T14:35:01;4.55;;;1.45;;
67378;SDS011;54262;44.642;-0.974;2023-12-20T14:37:29;3.22;;;1.05;;